Terminal Aerodrome Forecast
Issued by NWS

Home | Current Version | Previous Version | Graphics & Text | Print | Product List | Glossary On
Versions: 1 2 3 4 5 6 7 8 9 10 11 12 13 14 15 16 17
000
FTUS43 KICT 220717 AAA
TAFHUT
TAF AMD
KHUT 220717Z 2207/2306 35009KT P6SM OVC070
     FM221600 01013KT P6SM OVC070
     FM222300 36013KT P6SM BKN120
     FM230000 36007KT P6SM SCT130=

USA.gov is the U.S. government's official web portal to all federal, state and local government web resources and services.